Time;durP1;ratioP1;P1;durP2;ratioP2;P2;SDS_P1;SDS_P2;PMS_P1;PMS_P2;Temp;Humidity;BMP_temperature;BMP_pressure;BME280_temperature;BME280_humidity;BME280_pressure;Samples;Min_cycle;Max_cycle;Signal;HPM_P1;HPM_P2
2021/12/02 00:02:11;;;;;;;0.95;0.20;;;7.70;77.50;;;;;;5047779;28;20037;-67
2021/12/02 00:04:40;;;;;;;0.95;0.40;;;7.60;77.50;;;;;;5046964;28;20507;-67
2021/12/02 00:07:06;;;;;;;0.52;0.20;;;7.60;77.50;;;;;;5047228;28;20112;-67
2021/12/02 00:09:34;;;;;;;0.20;0.20;;;7.60;77.60;;;;;;5047417;28;20176;-67
2021/12/02 00:12:00;;;;;;;0.30;0.30;;;7.70;77.70;;;;;;5040821;28;20523;-67
2021/12/02 00:14:27;;;;;;;0.30;0.30;;;7.60;77.50;;;;;;5047853;28;20045;-66
2021/12/02 00:22:12;;;;;;;0.40;0.40;;;7.60;77.40;;;;;;5048099;28;20095;-67
2021/12/02 00:24:40;;;;;;;1.23;0.40;;;7.60;77.40;;;;;;5047650;28;20403;-67
2021/12/02 00:27:08;;;;;;;0.82;0.45;;;7.60;77.40;;;;;;5047703;28;20041;-66
2021/12/02 00:29:36;;;;;;;0.63;0.43;;;7.60;78.30;;;;;;5046363;28;20168;-66
2021/12/02 00:32:05;;;;;;;1.42;0.50;;;7.60;77.50;;;;;;5046289;28;20290;-67
2021/12/02 00:34:31;;;;;;;1.40;0.80;;;7.60;77.70;;;;;;5046858;28;20033;-66
2021/12/02 00:36:57;;;;;;;2.13;0.60;;;7.60;77.80;;;;;;5048130;28;20102;-67
2021/12/02 00:39:23;;;;;;;0.55;0.40;;;7.60;77.90;;;;;;5046300;28;20608;-67
2021/12/02 00:41:50;;;;;;;0.65;0.40;;;7.60;78.00;;;;;;5046961;28;20033;-67
2021/12/02 00:44:18;;;;;;;0.77;0.40;;;7.60;78.10;;;;;;5047894;28;20036;-65
2021/12/02 00:46:45;;;;;;;1.70;0.55;;;7.60;78.20;;;;;;5043087;28;20037;-67
2021/12/02 00:49:14;;;;;;;1.00;0.50;;;7.60;78.20;;;;;;5048606;28;20029;-67
2021/12/02 00:51:43;;;;;;;0.95;0.60;;;7.60;78.40;;;;;;5048143;28;20021;-65
2021/12/02 00:54:11;;;;;;;1.85;0.60;;;7.60;78.40;;;;;;5048173;28;20025;-67
2021/12/02 00:56:38;;;;;;;1.50;0.50;;;7.60;78.60;;;;;;5045599;28;20030;-67
2021/12/02 00:59:05;;;;;;;0.93;0.50;;;7.60;78.80;;;;;;5047466;28;20045;-67
2021/12/02 01:01:34;;;;;;;0.70;0.43;;;7.60;78.80;;;;;;5044368;28;20560;-67
2021/12/02 01:04:03;;;;;;;1.67;0.68;;;7.60;78.90;;;;;;5046572;28;20126;-67
2021/12/02 01:06:28;;;;;;;1.77;0.57;;;7.50;78.90;;;;;;5046776;28;20404;-67
2021/12/02 01:08:54;;;;;;;0.95;0.70;;;7.60;79.10;;;;;;5045937;28;20555;-65
2021/12/02 01:11:21;;;;;;;3.78;0.75;;;7.50;79.10;;;;;;5042045;28;20044;-67
2021/12/02 01:13:47;;;;;;;2.35;0.90;;;7.50;79.30;;;;;;5045866;28;20040;-67
2021/12/02 01:16:18;;;;;;;1.48;1.08;;;7.50;79.40;;;;;;5046801;28;20032;-67
2021/12/02 01:18:44;;;;;;;1.65;0.77;;;7.50;79.80;;;;;;5045986;28;20043;-65
2021/12/02 01:21:16;;;;;;;1.00;0.70;;;7.50;79.60;;;;;;5045794;28;20036;-67
2021/12/02 01:23:43;;;;;;;0.98;0.80;;;7.50;80.10;;;;;;5046654;28;20053;-67
2021/12/02 01:26:12;;;;;;;0.60;0.57;;;7.50;80.10;;;;;;5045337;28;20052;-67
2021/12/02 01:28:37;;;;;;;0.70;0.57;;;7.50;80.30;;;;;;5045004;28;20099;-67
2021/12/02 01:31:04;;;;;;;0.70;0.50;;;7.50;80.40;;;;;;5045055;28;20447;-67
2021/12/02 01:33:30;;;;;;;0.95;0.45;;;7.40;80.50;;;;;;5044616;28;20029;-66
2021/12/02 01:36:04;;;;;;;1.15;0.50;;;7.40;80.60;;;;;;5045359;28;20087;-67
2021/12/02 01:38:31;;;;;;;;;;;7.40;81.00;;;;;;5046650;28;20031;-67
2021/12/02 01:40:58;;;;;;;0.88;0.32;;;7.40;81.70;;;;;;5045578;28;19952;-66
2021/12/02 01:43:54;;;;;;;3.15;0.50;;;7.40;80.50;;;;;;5046118;28;20040;-66
2021/12/02 01:46:24;;;;;;;0.65;0.47;;;7.30;81.50;;;;;;5039681;28;20032;-67
2021/12/02 01:48:59;;;;;;;0.75;0.50;;;7.30;81.00;;;;;;5044663;28;20035;-67
2021/12/02 01:51:27;;;;;;;1.83;0.65;;;7.30;81.20;;;;;;5045314;28;20503;-66
2021/12/02 01:54:03;;;;;;;1.30;0.95;;;7.20;81.20;;;;;;5046629;28;20033;-67
2021/12/02 01:56:31;;;;;;;1.10;1.00;;;7.20;81.50;;;;;;5044832;28;20021;-67
2021/12/02 01:59:08;;;;;;;0.70;0.70;;;7.20;81.70;;;;;;5044226;28;20503;-67
2021/12/02 02:01:36;;;;;;;1.25;0.50;;;7.20;81.90;;;;;;5042407;28;20111;-67
2021/12/02 02:04:02;;;;;;;0.40;0.40;;;7.10;81.50;;;;;;5042388;28;20194;-67
2021/12/02 02:07:02;;;;;;;0.63;0.50;;;7.10;81.60;;;;;;5045911;28;20055;-66
2021/12/02 02:09:31;;;;;;;0.82;0.35;;;7.00;81.90;;;;;;5042560;28;20496;-67
2021/12/02 02:12:00;;;;;;;0.30;0.30;;;7.00;81.70;;;;;;5040760;28;20113;-67
2021/12/02 02:14:27;;;;;;;1.30;0.40;;;7.00;81.80;;;;;;5043530;28;20123;-67
2021/12/02 02:16:54;;;;;;;0.20;0.20;;;6.90;81.70;;;;;;5045198;28;20037;-67
2021/12/02 02:19:19;;;;;;;0.90;0.20;;;6.90;81.80;;;;;;5035927;28;20033;-67
2021/12/02 02:21:45;;;;;;;0.73;0.30;;;6.90;81.90;;;;;;5044953;28;20029;-67
2021/12/02 02:24:13;;;;;;;0.20;0.20;;;6.90;82.00;;;;;;5045844;28;20036;-67
2021/12/02 02:26:39;;;;;;;0.75;0.17;;;6.90;81.90;;;;;;5044071;28;20041;-67
2021/12/02 02:29:07;;;;;;;0.43;0.20;;;6.90;81.70;;;;;;5046037;28;20040;-67
2021/12/02 02:31:36;;;;;;;0.20;0.20;;;6.90;81.80;;;;;;5043711;28;20576;-67
2021/12/02 02:34:02;;;;;;;1.35;0.30;;;6.80;81.80;;;;;;5044914;28;20052;-67
2021/12/02 02:36:33;;;;;;;0.93;0.40;;;6.80;81.90;;;;;;5044424;28;20098;-67
2021/12/02 02:39:02;;;;;;;0.80;0.40;;;6.90;82.00;;;;;;5045293;28;20033;-67
2021/12/02 02:41:36;;;;;;;0.75;0.30;;;6.90;82.00;;;;;;5044996;28;20033;-66
2021/12/02 02:44:03;;;;;;;0.22;0.20;;;6.90;82.00;;;;;;5044579;28;20029;-66
2021/12/02 02:46:31;;;;;;;0.60;0.30;;;6.90;81.80;;;;;;5042685;28;20555;-67
2021/12/02 02:48:59;;;;;;;0.30;0.30;;;7.00;81.80;;;;;;5045217;28;20061;-67
2021/12/02 02:51:26;;;;;;;0.22;0.20;;;7.00;81.70;;;;;;5044131;28;20060;-66
2021/12/02 02:53:54;;;;;;;0.30;0.30;;;7.00;81.70;;;;;;5045043;28;20112;-67
2021/12/02 02:56:22;;;;;;;0.45;0.30;;;7.00;81.50;;;;;;5044062;28;20239;-67
2021/12/02 02:59:01;;;;;;;0.40;0.32;;;7.00;81.40;;;;;;5043132;28;20556;-67
2021/12/02 03:04:05;;;;;;;0.30;0.20;;;7.10;81.10;;;;;;5043947;28;20037;-67
2021/12/02 03:09:08;;;;;;;0.65;0.47;;;7.10;80.70;;;;;;5045538;28;20404;-67
2021/12/02 03:11:42;;;;;;;0.40;0.40;;;7.00;81.30;;;;;;5039253;28;20036;-67
2021/12/02 03:14:13;;;;;;;0.77;0.47;;;7.00;80.30;;;;;;5043890;28;20057;-67
2021/12/02 03:16:46;;;;;;;0.68;0.50;;;7.00;80.30;;;;;;5044373;28;20029;-66
2021/12/02 03:19:23;;;;;;;0.38;0.38;;;6.90;80.10;;;;;;5042648;28;20037;-67
2021/12/02 03:21:48;;;;;;;0.50;0.50;;;6.90;80.30;;;;;;5043260;28;20037;-67
2021/12/02 03:24:14;;;;;;;0.30;0.30;;;6.90;80.20;;;;;;5045158;28;20425;-67
2021/12/02 03:26:40;;;;;;;0.40;0.40;;;6.80;80.20;;;;;;5044769;28;20476;-67
2021/12/02 03:29:06;;;;;;;0.43;0.43;;;6.80;80.10;;;;;;5042265;28;20116;-66
2021/12/02 03:31:33;;;;;;;0.43;0.40;;;6.80;80.10;;;;;;5043098;28;20591;-67
2021/12/02 03:34:00;;;;;;;1.02;0.40;;;6.70;80.10;;;;;;5042556;28;20035;-67
2021/12/02 03:36:26;;;;;;;0.50;0.50;;;6.70;80.10;;;;;;5044902;28;20040;-67
2021/12/02 03:38:51;;;;;;;0.47;0.47;;;6.70;80.20;;;;;;5047967;28;20029;-67
2021/12/02 03:41:18;;;;;;;1.02;0.57;;;6.60;80.20;;;;;;5048933;28;20040;-67
2021/12/02 03:43:46;;;;;;;0.50;0.50;;;6.60;80.20;;;;;;5047921;28;20032;-66
2021/12/02 03:46:14;;;;;;;0.60;0.60;;;6.60;80.30;;;;;;5047935;28;20037;-67
2021/12/02 03:48:40;;;;;;;0.63;0.63;;;6.60;80.30;;;;;;5047256;28;20571;-67
2021/12/02 03:51:09;;;;;;;0.73;0.73;;;6.50;80.20;;;;;;5047504;28;20041;-66
2021/12/02 03:53:35;;;;;;;0.90;0.90;;;6.50;80.20;;;;;;5046767;28;20056;-67
2021/12/02 03:56:02;;;;;;;0.95;0.95;;;6.50;80.20;;;;;;5048549;28;20155;-66
2021/12/02 03:58:28;;;;;;;1.10;1.05;;;6.50;81.10;;;;;;5047768;28;20554;-67
2021/12/02 04:00:54;;;;;;;1.13;0.80;;;6.40;80.20;;;;;;5047440;28;20045;-67
2021/12/02 04:03:19;;;;;;;1.25;1.02;;;6.40;80.10;;;;;;5045561;28;20029;-67
2021/12/02 04:05:45;;;;;;;1.30;0.93;;;6.40;80.10;;;;;;5047396;28;20787;-66
2021/12/02 04:08:11;;;;;;;1.05;0.95;;;6.40;80.10;;;;;;5046599;28;20451;-67
2021/12/02 04:10:39;;;;;;;1.73;0.82;;;6.30;80.00;;;;;;5045688;28;20412;-66
2021/12/02 04:13:20;;;;;;;1.23;0.98;;;6.30;80.20;;;;;;5045760;28;20052;-67
2021/12/02 04:15:50;;;;;;;1.25;0.82;;;6.30;80.10;;;;;;5047021;28;20052;-66
2021/12/02 04:18:17;;;;;;;1.10;1.00;;;6.30;80.20;;;;;;5046634;28;20028;-67
2021/12/02 04:20:43;;;;;;;1.80;0.90;;;6.20;80.20;;;;;;5047614;28;20566;-67
2021/12/02 04:23:08;;;;;;;1.40;0.80;;;6.20;80.20;;;;;;5047257;28;20041;-66
2021/12/02 04:25:34;;;;;;;2.40;1.15;;;6.20;80.20;;;;;;5047735;28;20603;-67
2021/12/02 04:28:00;;;;;;;2.35;1.10;;;6.20;80.40;;;;;;5048138;28;20045;-67
2021/12/02 04:30:27;;;;;;;1.38;1.10;;;6.20;80.20;;;;;;5045396;28;20040;-67
2021/12/02 04:32:53;;;;;;;1.38;1.20;;;6.10;80.30;;;;;;5046964;28;20477;-67
2021/12/02 04:35:19;;;;;;;1.45;1.10;;;6.20;80.40;;;;;;5045653;28;20121;-66
2021/12/02 04:37:46;;;;;;;1.00;1.00;;;6.10;80.30;;;;;;5046611;28;20146;-67
2021/12/02 04:40:16;;;;;;;3.05;1.75;;;6.10;80.40;;;;;;5047306;28;20053;-67
2021/12/02 04:42:42;;;;;;;2.10;1.50;;;6.10;80.40;;;;;;5047335;28;20057;-67
2021/12/02 04:45:09;;;;;;;2.35;1.60;;;6.10;80.30;;;;;;5047490;28;20033;-66
2021/12/02 04:47:35;;;;;;;2.55;1.80;;;6.10;80.30;;;;;;5045182;28;20048;-66
2021/12/02 04:50:00;;;;;;;2.63;1.85;;;6.10;80.30;;;;;;5045192;28;20737;-66
2021/12/02 04:52:26;;;;;;;1.85;1.40;;;6.10;80.30;;;;;;5045464;28;20033;-66
2021/12/02 04:54:52;;;;;;;1.88;1.13;;;6.10;80.30;;;;;;5046544;28;20045;-67
2021/12/02 04:57:18;;;;;;;1.75;1.13;;;6.10;80.20;;;;;;5047530;28;20037;-64
2021/12/02 04:59:43;;;;;;;2.78;1.75;;;6.00;80.10;;;;;;5042734;28;20025;-66
2021/12/02 05:02:09;;;;;;;1.67;1.20;;;6.00;80.00;;;;;;5046507;28;20033;-66
2021/12/02 05:04:34;;;;;;;201.40;66.38;;;6.00;80.00;;;;;;5042549;28;20041;-67
2021/12/02 05:07:00;;;;;;;139.48;50.42;;;6.00;79.90;;;;;;5046620;28;20047;-66
2021/12/02 05:09:26;;;;;;;55.28;29.88;;;6.00;79.90;;;;;;5045492;28;20512;-66
2021/12/02 05:11:51;;;;;;;24.35;15.18;;;6.00;79.90;;;;;;5039764;28;21262;-66
2021/12/02 05:14:17;;;;;;;10.32;7.05;;;6.00;80.00;;;;;;5045854;28;20618;-67
2021/12/02 05:16:43;;;;;;;23.27;13.10;;;5.90;79.90;;;;;;5043432;28;20102;-67
2021/12/02 05:19:09;;;;;;;6.20;4.75;;;5.90;80.00;;;;;;5043432;28;20617;-67
2021/12/02 05:21:35;;;;;;;6.55;5.78;;;5.90;80.00;;;;;;5046813;28;20112;-67
2021/12/02 05:24:01;;;;;;;9.57;7.05;;;5.90;80.10;;;;;;5046003;28;20033;-67
2021/12/02 05:26:27;;;;;;;2.88;2.50;;;5.80;80.10;;;;;;5045073;28;20033;-67
2021/12/02 05:28:53;;;;;;;3.88;2.20;;;5.80;80.00;;;;;;5046764;28;20033;-67
2021/12/02 05:31:20;;;;;;;3.17;2.50;;;5.80;80.20;;;;;;5046408;28;20025;-67
2021/12/02 05:33:47;;;;;;;2.50;1.70;;;5.80;81.00;;;;;;5044127;28;20029;-67
2021/12/02 05:36:12;;;;;;;2.20;1.25;;;5.80;80.20;;;;;;5046188;28;20033;-66
2021/12/02 05:38:39;;;;;;;2.75;2.55;;;5.70;80.20;;;;;;5044923;28;20041;-67
2021/12/02 05:41:04;;;;;;;2.63;2.10;;;5.70;80.20;;;;;;5044522;28;20511;-67
2021/12/02 05:43:31;;;;;;;4.75;2.15;;;5.70;80.20;;;;;;5044954;28;20039;-67
2021/12/02 05:45:56;;;;;;;3.45;2.30;;;5.70;80.20;;;;;;5045666;28;20037;-67
2021/12/02 05:48:22;;;;;;;2.40;1.70;;;5.70;80.20;;;;;;5045276;28;20045;-67
2021/12/02 05:50:49;;;;;;;1.90;1.40;;;5.70;80.20;;;;;;5045485;28;20032;-67
2021/12/02 05:53:15;;;;;;;2.30;2.10;;;5.60;80.10;;;;;;5044945;28;20037;-66
2021/12/02 05:55:41;;;;;;;4.22;3.90;;;5.60;80.10;;;;;;5044871;28;20033;-66
2021/12/02 05:58:13;;;;;;;3.85;3.55;;;5.60;80.20;;;;;;5045183;28;20059;-66
2021/12/02 06:00:40;;;;;;;2.85;2.50;;;5.60;80.20;;;;;;5044899;28;20045;-67
2021/12/02 06:03:06;;;;;;;2.10;1.98;;;5.60;80.20;;;;;;5043267;28;20044;-67
2021/12/02 06:05:31;;;;;;;2.40;2.20;;;5.60;80.20;;;;;;5044802;28;20041;-67
2021/12/02 06:07:59;;;;;;;4.35;2.10;;;5.60;80.20;;;;;;5044292;28;20052;-65
2021/12/02 06:10:25;;;;;;;3.17;1.50;;;5.60;80.20;;;;;;5043140;28;20037;-66
2021/12/02 06:12:51;;;;;;;2.55;1.25;;;5.60;80.20;;;;;;5042917;28;20118;-67
2021/12/02 06:15:17;;;;;;;2.08;1.58;;;5.50;80.10;;;;;;5045213;28;20052;-66
2021/12/02 06:17:43;;;;;;;1.70;1.25;;;5.60;80.20;;;;;;5044543;28;20108;-67
2021/12/02 06:20:11;;;;;;;1.77;1.40;;;5.50;80.20;;;;;;5044844;28;20037;-67
2021/12/02 06:22:37;;;;;;;2.17;1.50;;;5.50;80.20;;;;;;5044722;28;20029;-67
2021/12/02 06:27:42;;;;;;;4.25;1.30;;;5.50;80.20;;;;;;5042346;28;20044;-66
2021/12/02 06:30:08;;;;;;;2.45;0.93;;;5.40;80.20;;;;;;5044226;28;20028;-67
2021/12/02 06:32:33;;;;;;;5.90;1.17;;;5.40;80.40;;;;;;5038135;28;20021;-66
2021/12/02 06:34:59;;;;;;;1.70;0.90;;;5.40;80.40;;;;;;5044634;28;20047;-67
2021/12/02 06:37:25;;;;;;;1.20;0.98;;;5.40;80.40;;;;;;5044861;28;20095;-66
2021/12/02 06:39:51;;;;;;;1.58;0.80;;;5.40;80.50;;;;;;5046373;28;20040;-66
2021/12/02 06:42:17;;;;;;;2.28;0.85;;;5.40;80.60;;;;;;5043451;28;20726;-67
2021/12/02 06:44:43;;;;;;;2.47;0.80;;;5.40;80.60;;;;;;5044085;28;20044;-67
2021/12/02 06:47:09;;;;;;;2.13;1.30;;;5.40;80.70;;;;;;5041454;28;20044;-67
2021/12/02 06:49:35;;;;;;;2.75;1.25;;;5.40;80.70;;;;;;5044166;28;20033;-67
2021/12/02 06:52:02;;;;;;;1.48;1.17;;;5.40;80.80;;;;;;5044066;28;20497;-66
2021/12/02 06:54:27;;;;;;;5.45;2.42;;;5.40;80.80;;;;;;5045651;28;20163;-67
2021/12/02 06:56:54;;;;;;;2.40;1.20;;;5.40;80.70;;;;;;5044050;28;20573;-66
2021/12/02 06:59:20;;;;;;;1.98;1.00;;;5.40;80.70;;;;;;5045024;28;20037;-66
2021/12/02 07:01:46;;;;;;;1.58;0.90;;;5.40;80.70;;;;;;5045643;28;20067;-66
2021/12/02 07:04:13;;;;;;;1.92;1.73;;;5.40;80.70;;;;;;5045666;28;20087;-66
2021/12/02 07:06:39;;;;;;;3.40;1.58;;;5.50;80.80;;;;;;5043330;28;20112;-67
2021/12/02 07:09:06;;;;;;;2.28;1.80;;;5.40;80.70;;;;;;5044744;28;20037;-66
2021/12/02 07:11:32;;;;;;;1.83;1.33;;;5.40;80.70;;;;;;5038079;28;20055;-67
2021/12/02 07:14:07;;;;;;;2.05;1.30;;;5.50;80.80;;;;;;5049405;28;20116;-67
2021/12/02 07:16:33;;;;;;;3.03;1.80;;;5.50;80.70;;;;;;5045087;28;20041;-67
2021/12/02 07:19:03;;;;;;;3.00;1.10;;;5.50;80.70;;;;;;5046737;28;20095;-66
2021/12/02 07:21:30;;;;;;;7.18;2.33;;;5.60;80.70;;;;;;5046622;28;20037;-67
2021/12/02 07:23:56;;;;;;;4.45;1.88;;;5.50;80.60;;;;;;5049184;28;20132;-67
2021/12/02 07:26:22;;;;;;;2.60;1.75;;;5.60;80.60;;;;;;5046904;28;20025;-66
2021/12/02 07:28:49;;;;;;;2.13;1.15;;;5.60;80.70;;;;;;5045409;28;20052;-67
2021/12/02 07:31:15;;;;;;;2.28;1.20;;;5.60;80.60;;;;;;5036931;28;20037;-66
2021/12/02 07:33:48;;;;;;;4.13;1.08;;;5.60;80.60;;;;;;5032971;28;20041;-66
2021/12/02 07:36:14;;;;;;;4.03;2.40;;;5.60;80.60;;;;;;5036189;28;21012;-66
2021/12/02 07:38:40;;;;;;;4.95;1.70;;;5.60;80.60;;;;;;5035230;28;20083;-67
2021/12/02 07:41:06;;;;;;;4.25;1.88;;;5.60;80.60;;;;;;5037793;28;20181;-67
2021/12/02 07:43:34;;;;;;;3.08;1.75;;;5.70;80.70;;;;;;5036914;28;20100;-66
2021/12/02 07:46:01;;;;;;;1.98;1.45;;;5.60;80.60;;;;;;5036499;28;20451;-67
2021/12/02 07:48:26;;;;;;;3.40;2.05;;;5.70;80.70;;;;;;5033840;28;20044;-67
2021/12/02 07:50:55;;;;;;;3.55;1.40;;;5.70;80.70;;;;;;5041445;28;20038;-67
2021/12/02 07:53:24;;;;;;;5.30;2.67;;;5.70;80.70;;;;;;5040363;28;20102;-67
2021/12/02 07:55:52;;;;;;;8.27;3.35;;;5.70;80.70;;;;;;5042388;28;20041;-67
2021/12/02 07:58:20;;;;;;;4.97;3.05;;;5.70;80.80;;;;;;5039285;28;20432;-68
2021/12/02 08:00:45;;;;;;;4.35;1.70;;;5.80;80.90;;;;;;5040080;28;20420;-64
2021/12/02 08:03:12;;;;;;;2.28;1.20;;;5.80;80.80;;;;;;5038249;28;20063;-67
2021/12/02 08:05:39;;;;;;;4.85;1.80;;;5.80;80.70;;;;;;5042724;28;20524;-67
2021/12/02 08:08:05;;;;;;;3.78;1.70;;;5.80;80.70;;;;;;5036359;28;20493;-67
2021/12/02 08:10:31;;;;;;;5.45;1.40;;;5.80;80.90;;;;;;5039724;28;20116;-67
2021/12/02 08:12:59;;;;;;;4.63;1.25;;;5.80;81.10;;;;;;5034307;28;20580;-67
2021/12/02 08:15:27;;;;;;;2.72;1.30;;;5.80;81.00;;;;;;5037809;28;20132;-68
2021/12/02 08:17:53;;;;;;;2.47;1.40;;;5.80;81.00;;;;;;5038912;28;20045;-66
2021/12/02 08:20:21;;;;;;;3.70;1.60;;;5.80;80.90;;;;;;5041856;28;20036;-64
2021/12/02 08:22:47;;;;;;;2.58;1.40;;;5.80;80.90;;;;;;5033154;28;20068;-66
2021/12/02 08:25:13;;;;;;;2.92;1.40;;;5.80;80.90;;;;;;5041746;28;20513;-67
2021/12/02 08:27:40;;;;;;;6.18;1.70;;;5.80;80.90;;;;;;5035736;28;20065;-67
2021/12/02 08:30:09;;;;;;;5.32;1.65;;;5.90;80.90;;;;;;5041195;28;20037;-67
2021/12/02 08:32:37;;;;;;;3.63;1.50;;;5.80;81.00;;;;;;5035642;28;20037;-66
2021/12/02 08:35:04;;;;;;;4.75;1.75;;;5.90;81.10;;;;;;5039407;28;20056;-67
2021/12/02 08:37:32;;;;;;;3.83;1.38;;;5.90;81.20;;;;;;5037280;28;20420;-65
2021/12/02 08:40:00;;;;;;;3.72;1.40;;;5.90;81.20;;;;;;5035781;28;20060;-65
2021/12/02 08:42:32;;;;;;;3.35;1.35;;;5.90;81.20;;;;;;5038673;28;20066;-66
2021/12/02 08:44:58;;;;;;;4.72;1.42;;;5.90;81.20;;;;;;5038362;28;20029;-63
2021/12/02 08:47:25;;;;;;;3.72;1.40;;;6.00;81.20;;;;;;5038518;28;20061;-66
2021/12/02 08:49:53;;;;;;;3.55;1.30;;;5.90;81.30;;;;;;5040664;28;20037;-66
2021/12/02 08:52:20;;;;;;;3.13;1.50;;;6.00;81.10;;;;;;5037832;28;20074;-67
2021/12/02 08:54:47;;;;;;;3.42;1.35;;;6.00;81.00;;;;;;5033470;28;20436;-66
2021/12/02 08:57:12;;;;;;;5.30;1.17;;;6.00;80.90;;;;;;5037026;28;20172;-66
2021/12/02 08:59:40;;;;;;;2.75;1.10;;;6.10;80.80;;;;;;5040407;28;20151;-66
2021/12/02 09:02:05;;;;;;;3.35;1.10;;;6.10;80.70;;;;;;5035398;28;20033;-66
2021/12/02 09:04:31;;;;;;;4.88;1.40;;;6.10;80.60;;;;;;5030756;28;20036;-66
2021/12/02 09:06:57;;;;;;;6.63;1.15;;;6.10;80.60;;;;;;5042068;28;20395;-66
2021/12/02 09:09:25;;;;;;;3.28;1.17;;;6.10;80.50;;;;;;5043848;28;20032;-67
2021/12/02 09:11:51;;;;;;;2.15;1.20;;;6.20;80.60;;;;;;5034632;28;20029;-67
2021/12/02 09:14:17;;;;;;;2.63;1.20;;;6.20;80.60;;;;;;5042960;28;20408;-67
2021/12/02 09:16:42;;;;;;;3.30;1.20;;;6.20;80.60;;;;;;5042023;28;20033;-66
2021/12/02 09:19:08;;;;;;;4.18;1.42;;;6.20;80.60;;;;;;5039743;28;20022;-67
2021/12/02 09:21:34;;;;;;;4.28;1.40;;;6.30;80.60;;;;;;5036542;28;20116;-67
2021/12/02 09:23:59;;;;;;;2.90;1.30;;;6.30;80.50;;;;;;5033801;28;20033;-67
2021/12/02 09:26:25;;;;;;;3.33;1.00;;;6.30;80.40;;;;;;5041880;28;20033;-67
2021/12/02 09:28:56;;;;;;;1.90;0.90;;;6.30;80.40;;;;;;5041676;28;20047;-67
2021/12/02 09:31:22;;;;;;;2.35;0.90;;;6.40;80.20;;;;;;5041795;28;20746;-66
2021/12/02 09:33:48;;;;;;;2.58;1.00;;;6.40;80.00;;;;;;5039364;28;20029;-67
2021/12/02 09:36:14;;;;;;;5.07;1.25;;;6.40;79.90;;;;;;5037550;28;20044;-68
2021/12/02 09:38:40;;;;;;;2.03;1.20;;;6.40;79.80;;;;;;5040996;28;20040;-67
2021/12/02 09:41:05;;;;;;;3.13;1.10;;;6.40;79.90;;;;;;5038915;28;20045;-67
2021/12/02 09:43:31;;;;;;;2.75;1.00;;;6.40;79.90;;;;;;5041134;28;20037;-68
2021/12/02 09:45:57;;;;;;;2.15;0.90;;;6.50;79.90;;;;;;5040715;28;20049;-66
2021/12/02 09:48:22;;;;;;;1.65;0.90;;;6.50;80.00;;;;;;5042596;28;20047;-67
2021/12/02 09:50:52;;;;;;;2.80;0.90;;;6.60;80.10;;;;;;5038869;28;20068;-67
2021/12/02 09:53:22;;;;;;;1.98;0.70;;;6.60;79.90;;;;;;5039335;28;20038;-66
2021/12/02 09:56:06;;;;;;;1.20;0.80;;;6.70;80.00;;;;;;5040443;28;20032;-66
2021/12/02 09:58:32;;;;;;;3.25;0.80;;;6.80;79.90;;;;;;5042910;28;20043;-65
2021/12/02 10:01:16;;;;;;;3.97;0.90;;;6.80;79.80;;;;;;5040200;28;20033;-67
2021/12/02 10:03:46;;;;;;;2.33;0.90;;;6.80;79.30;;;;;;5040638;28;20048;-66
2021/12/02 10:06:19;;;;;;;1.67;0.80;;;6.90;79.30;;;;;;5039258;28;20041;-66
2021/12/02 10:11:31;;;;;;;0.95;0.68;;;7.00;79.90;;;;;;5034522;28;20037;-66
2021/12/02 10:14:27;;;;;;;0.95;0.75;;;7.00;78.70;;;;;;5035407;28;20033;-65
2021/12/02 10:17:17;;;;;;;1.95;1.00;;;7.00;78.40;;;;;;5036510;28;20132;-64
2021/12/02 10:20:15;;;;;;;2.25;1.00;;;7.10;78.20;;;;;;5041115;28;20037;-66
2021/12/02 10:22:44;;;;;;;3.40;1.20;;;7.10;78.20;;;;;;5038534;28;20086;-65
2021/12/02 10:25:10;;;;;;;1.50;0.80;;;7.10;78.20;;;;;;5039288;28;20033;-65
2021/12/02 10:27:36;;;;;;;3.22;1.30;;;7.10;78.00;;;;;;5038147;28;20714;-65
2021/12/02 10:30:20;;;;;;;2.28;1.65;;;7.10;78.10;;;;;;5040587;28;20029;-66
2021/12/02 10:32:51;;;;;;;3.93;1.87;;;7.10;77.90;;;;;;5039671;28;20033;-66
2021/12/02 10:35:17;;;;;;;2.35;1.10;;;7.10;77.80;;;;;;5041457;28;20045;-66
2021/12/02 10:37:43;;;;;;;2.90;1.40;;;7.10;78.00;;;;;;5037689;28;20032;-63
2021/12/02 10:40:13;;;;;;;2.15;1.05;;;7.10;78.20;;;;;;5038491;28;20505;-66
2021/12/02 10:42:42;;;;;;;2.50;1.13;;;7.20;78.40;;;;;;5036321;28;20037;-66
2021/12/02 10:45:30;;;;;;;15.43;7.00;;;7.20;78.50;;;;;;5037152;28;20030;-66
2021/12/02 10:47:57;;;;;;;2.58;1.80;;;7.20;78.20;;;;;;5037425;28;20037;-65
2021/12/02 10:50:25;;;;;;;2.33;1.55;;;7.30;78.30;;;;;;5037221;28;20543;-66
2021/12/02 10:52:51;;;;;;;3.28;2.40;;;7.30;78.00;;;;;;5035779;28;20611;-65
2021/12/02 10:55:22;;;;;;;1.20;0.70;;;7.30;77.80;;;;;;5044096;28;20033;-66
2021/12/02 10:57:54;;;;;;;1.52;0.50;;;7.30;77.10;;;;;;5045080;28;20025;-65
2021/12/02 11:00:23;;;;;;;2.08;0.70;;;7.40;76.70;;;;;;5045553;28;20033;-66
2021/12/02 11:02:53;;;;;;;2.05;1.60;;;7.40;76.60;;;;;;5045251;28;20123;-66
2021/12/02 11:05:27;;;;;;;1.05;0.70;;;7.40;77.00;;;;;;5046137;28;20029;-66
2021/12/02 11:08:12;;;;;;;1.05;0.50;;;7.40;77.10;;;;;;5044123;28;20094;-66
2021/12/02 11:10:39;;;;;;;0.95;0.68;;;7.40;76.50;;;;;;5037881;28;20406;-66
2021/12/02 11:13:06;;;;;;;2.72;2.53;;;7.40;76.60;;;;;;5041555;28;20467;-66
2021/12/02 11:15:34;;;;;;;1.80;1.20;;;7.40;76.60;;;;;;5043419;28;20063;-66
2021/12/02 11:18:08;;;;;;;2.03;1.83;;;7.40;76.50;;;;;;5031512;28;20409;-67
2021/12/02 11:20:43;;;;;;;0.68;0.40;;;7.40;76.30;;;;;;5039375;28;20037;-65
2021/12/02 11:23:12;;;;;;;;;;;7.50;76.30;;;;;;5042161;28;20033;-65
2021/12/02 11:25:58;;;;;;;1.88;0.90;;;7.50;76.00;;;;;;5045803;28;20000;-66
2021/12/02 11:28:29;;;;;;;0.60;0.40;;;7.50;76.30;;;;;;5045793;28;20080;-66
2021/12/02 11:30:56;;;;;;;0.65;0.52;;;7.50;76.60;;;;;;5045615;28;20128;-66
2021/12/02 11:33:39;;;;;;;1.10;0.45;;;7.60;76.50;;;;;;5045738;28;20626;-65
2021/12/02 11:36:07;;;;;;;1.20;0.90;;;7.60;76.60;;;;;;5045001;28;20044;-66
2021/12/02 11:38:33;;;;;;;2.17;0.80;;;7.60;76.80;;;;;;5040662;28;20037;-66
2021/12/02 11:41:03;;;;;;;1.20;0.63;;;7.70;76.80;;;;;;5044841;28;20103;-66
2021/12/02 11:43:31;;;;;;;1.27;0.90;;;7.60;76.60;;;;;;5044755;28;20029;-66
2021/12/02 11:45:59;;;;;;;1.95;0.90;;;7.70;76.40;;;;;;5043074;28;20041;-66
2021/12/02 11:48:39;;;;;;;3.15;1.50;;;7.70;76.40;;;;;;5053833;28;20682;-66
2021/12/02 11:51:12;;;;;;;3.35;1.20;;;7.70;76.30;;;;;;5044891;28;20025;-66
2021/12/02 11:53:38;;;;;;;1.02;0.70;;;7.70;76.40;;;;;;5041213;28;20033;-66
2021/12/02 11:56:07;;;;;;;1.50;0.85;;;7.70;76.30;;;;;;5041370;28;20128;-66
2021/12/02 11:58:34;;;;;;;2.75;0.77;;;7.70;76.30;;;;;;5041636;28;20048;-66
2021/12/02 12:01:00;;;;;;;1.83;1.02;;;7.70;76.40;;;;;;5048047;28;20040;-65
2021/12/02 12:03:47;;;;;;;2.83;1.67;;;7.70;76.40;;;;;;5047275;28;20045;-66
2021/12/02 12:06:34;;;;;;;1.33;1.00;;;7.70;76.30;;;;;;5042637;28;20504;-66
2021/12/02 12:09:04;;;;;;;2.47;1.30;;;7.80;76.80;;;;;;5046987;28;20037;-66
2021/12/02 12:11:35;;;;;;;1.80;1.15;;;7.80;76.30;;;;;;5040770;28;20057;-66
2021/12/02 12:14:05;;;;;;;1.20;1.10;;;7.80;76.20;;;;;;5045967;28;20040;-66
2021/12/02 12:16:34;;;;;;;1.15;0.57;;;7.80;76.30;;;;;;5044865;28;20144;-65
2021/12/02 12:19:30;;;;;;;1.63;0.50;;;7.80;77.00;;;;;;5044210;28;20289;-66
2021/12/02 12:22:00;;;;;;;1.92;0.50;;;7.80;75.20;;;;;;5047101;28;20033;-66
2021/12/02 12:24:49;;;;;;;1.67;0.70;;;7.80;75.80;;;;;;5047965;28;20035;-67
2021/12/02 12:27:29;;;;;;;3.90;0.52;;;7.80;74.90;;;;;;5046946;28;20067;-66
2021/12/02 12:30:06;;;;;;;3.03;0.45;;;7.80;75.10;;;;;;5048861;28;20036;-66
2021/12/02 12:32:46;;;;;;;1.17;0.38;;;7.80;73.90;;;;;;5047965;28;20033;-66
2021/12/02 12:35:31;;;;;;;0.10;0.10;;;7.80;72.90;;;;;;5046555;28;20196;-66
2021/12/02 12:37:58;;;;;;;1.17;0.10;;;7.70;72.80;;;;;;5048531;28;20048;-66
2021/12/02 12:40:25;;;;;;;0.10;0.10;;;7.60;72.50;;;;;;5048755;28;20076;-66
2021/12/02 12:43:02;;;;;;;0.10;0.10;;;7.30;72.30;;;;;;5048228;28;20033;-65
2021/12/02 12:45:41;;;;;;;0.80;0.25;;;7.00;71.90;;;;;;5047100;28;20407;-66
2021/12/02 12:48:17;;;;;;;0.82;0.55;;;6.60;72.50;;;;;;5047474;28;20041;-66
2021/12/02 12:50:46;;;;;;;3.50;2.30;;;6.30;73.60;;;;;;5047185;28;20052;-67
2021/12/02 12:53:18;;;;;;;3.60;1.77;;;6.00;75.50;;;;;;5048473;28;20711;-66
2021/12/02 12:55:52;;;;;;;2.90;2.17;;;5.80;75.70;;;;;;5048517;28;20039;-66
2021/12/02 12:58:20;;;;;;;1.67;0.90;;;5.60;76.90;;;;;;5044459;28;20025;-65
2021/12/02 13:00:53;;;;;;;2.03;1.40;;;5.50;77.40;;;;;;5044296;28;20496;-66
2021/12/02 13:03:30;;;;;;;1.75;1.35;;;5.40;78.00;;;;;;5044001;28;20041;-66
2021/12/02 13:06:16;;;;;;;1.30;1.20;;;5.30;78.40;;;;;;5044638;28;20134;-65
2021/12/02 13:08:49;;;;;;;2.95;1.20;;;5.30;79.30;;;;;;5046780;28;20044;-66
2021/12/02 13:11:19;;;;;;;2.58;1.08;;;5.30;79.50;;;;;;5039977;28;20238;-66
2021/12/02 13:13:46;;;;;;;1.88;1.38;;;5.20;79.50;;;;;;5046019;28;20040;-66
2021/12/02 13:16:16;;;;;;;2.63;2.42;;;5.20;79.80;;;;;;5044854;28;20075;-66
2021/12/02 13:18:47;;;;;;;1.65;1.38;;;5.20;80.20;;;;;;5045411;28;20037;-66
2021/12/02 13:21:29;;;;;;;6.80;3.92;;;5.30;80.60;;;;;;5041521;28;20548;-66
2021/12/02 13:24:08;;;;;;;4.28;2.10;;;5.30;80.80;;;;;;5048233;28;20048;-66